Time;durP1;ratioP1;P1;durP2;ratioP2;P2;SDS_P1;SDS_P2;PMS_P1;PMS_P2;Temp;Humidity;BMP_temperature;BMP_pressure;BME280_temperature;BME280_humidity;BME280_pressure;Samples;Min_cycle;Max_cycle;Signal;HPM_P1;HPM_P2
2023/08/04 00:00:54;;;;;;;6.22;1.65;;;;;;;23.91;56.18;101125.03;5051178;28;20511;-72
2023/08/04 00:03:19;;;;;;;3.40;1.20;;;;;;;23.81;57.18;101130.88;5033661;28;20026;-71
2023/08/04 00:05:45;;;;;;;2.95;1.48;;;;;;;23.62;57.57;101130.28;5035230;28;20052;-72
2023/08/04 00:08:11;;;;;;;9.95;1.60;;;;;;;23.52;58.79;101125.50;5043508;28;20116;-72
2023/08/04 00:10:36;;;;;;;7.13;1.50;;;;;;;23.23;60.46;101129.03;5052508;28;20525;-71
2023/08/04 00:13:01;;;;;;;5.25;1.65;;;;;;;23.58;58.71;101123.44;5041967;28;20029;-72
2023/08/04 00:15:28;;;;;;;3.70;1.52;;;;;;;23.62;57.80;101119.63;5041379;28;20038;-72
2023/08/04 00:17:54;;;;;;;6.30;1.60;;;;;;;23.10;59.81;101128.88;5032461;28;20037;-72
2023/08/04 00:20:19;;;;;;;5.85;1.65;;;;;;;22.75;60.96;101134.41;5032671;28;20036;-72
2023/08/04 00:22:45;;;;;;;2.88;1.42;;;;;;;23.05;59.82;101126.44;5033788;28;20479;-72
2023/08/04 00:25:10;;;;;;;6.47;1.48;;;;;;;22.87;60.64;101137.25;5041659;28;20030;-72
2023/08/04 00:27:36;;;;;;;11.30;2.38;;;;;;;23.17;60.59;101122.25;5047368;28;20481;-71
2023/08/04 00:30:02;;;;;;;5.22;1.30;;;;;;;22.89;61.64;101121.16;5037647;28;20112;-71
2023/08/04 00:32:28;;;;;;;5.20;1.90;;;;;;;23.15;60.73;101125.03;5071459;28;20033;-72
2023/08/04 00:34:53;;;;;;;5.32;2.10;;;;;;;23.13;60.34;101118.91;5037913;28;20040;-71
2023/08/04 00:37:18;;;;;;;5.65;2.05;;;;;;;23.34;60.00;101121.25;5045192;28;20032;-71
2023/08/04 00:39:44;;;;;;;3.05;1.67;;;;;;;23.50;59.46;101124.72;5037040;28;20496;-72
2023/08/04 00:42:10;;;;;;;4.65;1.67;;;;;;;23.43;59.14;101126.03;5031718;28;20025;-72
2023/08/04 00:44:36;;;;;;;4.80;1.60;;;;;;;23.45;60.39;101129.50;5045411;28;20033;-72
2023/08/04 00:47:02;;;;;;;3.40;1.60;;;;;;;23.15;60.89;101133.00;5050865;28;20399;-71
2023/08/04 00:49:28;;;;;;;4.22;1.80;;;;;;;23.24;60.14;101133.44;5036986;28;20030;-72
2023/08/04 00:51:53;;;;;;;6.63;1.67;;;;;;;23.20;60.29;101130.94;5030378;28;20060;-72
2023/08/04 00:54:19;;;;;;;3.35;1.60;;;;;;;23.04;63.15;101140.75;5047654;28;20405;-72
2023/08/04 00:56:45;;;;;;;7.78;1.48;;;;;;;23.18;62.56;101140.81;5047749;28;20110;-71
2023/08/04 00:59:11;;;;;;;5.10;1.77;;;;;;;22.34;65.22;101143.78;5042287;28;20121;-72
2023/08/04 01:01:37;;;;;;;4.38;2.08;;;;;;;23.24;61.21;101144.09;5041132;28;20129;-72
2023/08/04 01:04:03;;;;;;;2.58;1.60;;;;;;;23.29;61.26;101147.34;5044404;28;20029;-71
2023/08/04 01:06:43;;;;;;;6.57;2.00;;;;;;;22.97;62.53;101150.91;5030123;28;20067;-70
2023/08/04 01:09:25;;;;;;;5.03;1.55;;;;;;;23.44;60.93;101149.09;5029728;28;20031;-71
2023/08/04 01:12:14;;;;;;;4.18;1.80;;;;;;;23.32;60.66;101145.34;5033935;28;20033;-71
2023/08/04 01:14:42;;;;;;;4.78;1.55;;;;;;;23.21;61.18;101142.47;5027815;28;20516;-71
2023/08/04 01:17:25;;;;;;;7.05;1.52;;;;;;;23.11;61.08;101144.78;5048257;28;20037;-71
2023/08/04 01:19:51;;;;;;;6.65;2.17;;;;;;;23.24;61.29;101147.59;5021492;28;20115;-71
2023/08/04 01:22:17;;;;;;;5.05;1.70;;;;;;;23.39;60.22;101145.84;5044390;28;20063;-71
2023/08/04 01:24:42;;;;;;;5.80;1.70;;;;;;;22.95;63.17;101152.78;5058209;28;20036;-71
2023/08/04 01:27:11;;;;;;;3.15;1.42;;;;;;;23.00;63.42;101144.53;5026911;28;20482;-72
2023/08/04 01:29:37;;;;;;;3.97;1.60;;;;;;;21.99;66.72;101157.13;5030513;28;20555;-71
2023/08/04 01:32:03;;;;;;;4.97;1.70;;;;;;;22.64;64.29;101148.31;5043649;28;20242;-71
2023/08/04 01:34:28;;;;;;;3.78;1.58;;;;;;;23.56;60.96;101139.50;5030960;28;20040;-71
2023/08/04 01:36:54;;;;;;;5.75;2.03;;;;;;;23.31;61.60;101140.09;5047824;28;20031;-71
2023/08/04 01:39:19;;;;;;;5.32;2.13;;;;;;;23.40;60.90;101142.25;5039054;28;20072;-70
2023/08/04 01:41:44;;;;;;;3.70;1.60;;;;;;;23.07;62.55;101150.34;5052653;28;20515;-71
2023/08/04 01:44:10;;;;;;;4.18;1.73;;;;;;;23.23;62.00;101150.38;5054393;28;20092;-71
2023/08/04 01:46:35;;;;;;;2.28;1.20;;;;;;;23.13;62.50;101147.38;5035015;28;20500;-73
2023/08/04 01:49:01;;;;;;;4.93;2.08;;;;;;;23.03;62.58;101160.34;5036963;28;20028;-71
2023/08/04 01:51:26;;;;;;;4.90;1.50;;;;;;;23.64;61.01;101144.38;5042263;28;20102;-71
2023/08/04 01:53:52;;;;;;;3.17;1.50;;;;;;;23.43;62.41;101151.88;5047459;28;20024;-72
2023/08/04 01:56:17;;;;;;;6.00;1.83;;;;;;;23.47;61.39;101153.41;5048543;28;20045;-72
2023/08/04 01:58:43;;;;;;;9.23;1.80;;;;;;;23.63;60.62;101154.22;5040448;28;20029;-72
2023/08/04 02:01:08;;;;;;;3.47;1.38;;;;;;;23.48;61.55;101152.44;5035846;28;20440;-71
2023/08/04 02:03:34;;;;;;;4.32;1.50;;;;;;;23.92;60.11;101164.09;5048845;28;20108;-71
2023/08/04 02:06:00;;;;;;;5.15;2.10;;;;;;;23.64;61.34;101161.25;5048375;28;20025;-72
2023/08/04 02:08:25;;;;;;;3.97;1.38;;;;;;;23.36;60.30;101168.22;5044547;28;20392;-71
2023/08/04 02:10:51;;;;;;;5.47;2.28;;;;;;;23.74;60.18;101161.56;5033288;28;20032;-71
2023/08/04 02:13:16;;;;;;;6.68;2.25;;;;;;;23.86;60.32;101170.63;5039743;28;20107;-71
2023/08/04 02:15:42;;;;;;;5.05;1.42;;;;;;;23.67;60.42;101170.88;5046035;28;20032;-70
2023/08/04 02:18:07;;;;;;;4.95;1.30;;;;;;;24.05;59.23;101181.06;5050635;28;20029;-71
2023/08/04 02:20:33;;;;;;;4.68;1.40;;;;;;;23.82;59.33;101169.97;5027056;28;20627;-70
2023/08/04 02:22:58;;;;;;;5.80;1.88;;;;;;;24.05;58.04;101173.06;5038850;28;20032;-70
2023/08/04 02:25:24;;;;;;;4.03;1.73;;;;;;;24.22;57.64;101178.22;5044840;28;20025;-71
2023/08/04 02:27:49;;;;;;;3.28;1.90;;;;;;;23.84;58.99;101173.38;5028080;28;20021;-71
2023/08/04 02:30:14;;;;;;;4.70;1.50;;;;;;;23.68;58.89;101185.94;5044219;28;20136;-71
2023/08/04 02:32:40;;;;;;;3.22;2.05;;;;;;;24.19;57.71;101178.44;5049973;28;20484;-71
2023/08/04 02:35:06;;;;;;;6.03;1.60;;;;;;;23.85;59.52;101185.78;5041215;28;20127;-71
2023/08/04 02:37:31;;;;;;;8.25;2.63;;;;;;;23.90;59.07;101188.19;5044096;28;20037;-70
2023/08/04 02:39:57;;;;;;;3.00;1.88;;;;;;;24.01;57.84;101182.22;5044842;28;20021;-71
2023/08/04 02:42:22;;;;;;;2.78;1.30;;;;;;;24.12;58.09;101186.91;5048481;28;20025;-71
2023/08/04 02:44:53;;;;;;;9.05;1.75;;;;;;;24.34;56.74;101186.41;5045265;28;20032;-70
2023/08/04 02:47:18;;;;;;;3.70;1.40;;;;;;;24.30;56.89;101190.22;5078876;28;20040;-72
2023/08/04 02:49:43;;;;;;;5.32;1.52;;;;;;;24.78;54.88;101190.78;5040778;28;20029;-72
2023/08/04 02:52:14;;;;;;;5.13;1.70;;;;;;;24.28;55.67;101194.81;5033815;28;20037;-70
2023/08/04 02:54:39;;;;;;;4.45;1.70;;;;;;;24.15;56.51;101197.38;5047819;28;20102;-71
2023/08/04 02:57:05;;;;;;;6.63;1.42;;;;;;;24.00;57.01;101193.84;5043825;28;20536;-71
2023/08/04 02:59:30;;;;;;;4.88;1.40;;;;;;;23.79;58.67;101196.81;5042193;28;20029;-71
2023/08/04 03:01:56;;;;;;;4.78;1.70;;;;;;;23.86;57.93;101197.31;5030438;28;20044;-72
2023/08/04 03:04:21;;;;;;;3.92;1.30;;;;;;;23.93;58.08;101205.84;5046229;28;20082;-71
2023/08/04 03:06:47;;;;;;;3.30;1.40;;;;;;;24.18;57.05;101203.41;5043832;28;20028;-72
2023/08/04 03:09:12;;;;;;;5.55;2.05;;;;;;;24.25;56.43;101201.22;5035484;28;20033;-72
2023/08/04 03:11:38;;;;;;;5.13;1.63;;;;;;;24.54;55.69;101196.72;5026997;28;20029;-71
2023/08/04 03:14:03;;;;;;;2.67;1.48;;;;;;;24.25;57.41;101195.88;5035035;28;20033;-71
2023/08/04 03:16:29;;;;;;;3.58;1.80;;;;;;;24.37;56.11;101203.13;5044362;28;20033;-71
2023/08/04 03:18:54;;;;;;;1.90;1.33;;;;;;;24.72;55.48;101193.84;5042563;28;20377;-71
2023/08/04 03:21:20;;;;;;;2.08;1.35;;;;;;;24.46;55.64;101201.69;5034939;28;20598;-71
2023/08/04 03:23:45;;;;;;;3.58;1.25;;;;;;;24.42;55.82;101204.66;5048444;28;20044;-72
2023/08/04 03:26:11;;;;;;;3.65;1.52;;;;;;;24.31;55.29;101203.50;5038053;28;20033;-72
2023/08/04 03:28:36;;;;;;;2.20;1.60;;;;;;;24.39;54.93;101200.34;5027614;28;20033;-72
2023/08/04 03:31:02;;;;;;;3.15;1.60;;;;;;;24.36;55.45;101205.91;5020194;28;20486;-71
2023/08/04 03:33:27;;;;;;;2.15;1.42;;;;;;;24.22;56.33;101204.94;5046277;28;20086;-71
2023/08/04 03:35:53;;;;;;;4.80;1.80;;;;;;;24.60;55.31;101202.63;5041090;28;20029;-70
2023/08/04 03:38:18;;;;;;;7.10;1.65;;;;;;;24.47;55.50;101208.75;5038424;28;20043;-70
2023/08/04 03:40:43;;;;;;;3.83;1.35;;;;;;;24.76;55.09;101216.75;5040075;28;20029;-71
2023/08/04 03:43:09;;;;;;;4.85;1.67;;;;;;;24.70;54.81;101220.69;5044370;28;20029;-71
2023/08/04 03:45:37;;;;;;;1.83;1.30;;;;;;;23.73;57.76;101223.88;5027859;28;20489;-71
2023/08/04 03:48:03;;;;;;;2.30;1.38;;;;;;;22.47;63.68;101227.34;5046368;28;20068;-71
2023/08/04 03:50:29;;;;;;;3.58;1.23;;;;;;;23.62;60.11;101215.66;5048747;28;20043;-71
2023/08/04 03:52:54;;;;;;;2.30;1.27;;;;;;;22.88;61.85;101232.22;5048059;28;20086;-71
2023/08/04 03:55:20;;;;;;;1.83;1.25;;;;;;;23.47;60.54;101234.28;5047208;28;20473;-71
2023/08/04 03:57:45;;;;;;;2.42;0.95;;;;;;;23.38;59.48;101235.69;5033258;28;20032;-71
2023/08/04 04:00:11;;;;;;;2.40;1.27;;;;;;;23.65;59.63;101236.81;5029707;28;20128;-71
2023/08/04 04:02:36;;;;;;;2.50;1.40;;;;;;;24.30;56.91;101222.28;5034467;28;20105;-71
2023/08/04 04:05:02;;;;;;;5.03;1.42;;;;;;;24.37;56.48;101228.97;5028441;28;20033;-71
2023/08/04 04:07:28;;;;;;;4.50;1.55;;;;;;;24.15;56.96;101234.75;5040326;28;20025;-72
2023/08/04 04:09:53;;;;;;;1.27;1.05;;;;;;;23.81;58.56;101237.63;5032804;28;20033;-72
2023/08/04 04:12:18;;;;;;;1.58;1.23;;;;;;;24.08;57.50;101242.28;5039527;28;20084;-71
2023/08/04 04:14:44;;;;;;;3.20;2.08;;;;;;;23.96;58.44;101238.56;5044067;28;20025;-71
2023/08/04 04:17:09;;;;;;;2.13;1.77;;;;;;;24.16;57.94;101240.00;5044058;28;20048;-71
2023/08/04 04:19:37;;;;;;;1.48;1.27;;;;;;;24.08;57.47;101242.28;5070689;28;20501;-71
2023/08/04 04:22:03;;;;;;;6.57;1.77;;;;;;;24.17;56.96;101239.06;5044116;28;20030;-72
2023/08/04 04:24:28;;;;;;;4.78;1.38;;;;;;;24.37;55.79;101244.97;5027953;28;20543;-72
2023/08/04 04:26:54;;;;;;;5.60;1.58;;;;;;;23.56;59.06;101251.53;5039802;28;20233;-72
2023/08/04 04:29:19;;;;;;;2.78;1.40;;;;;;;23.86;58.66;101250.69;5041341;28;20029;-72
2023/08/04 04:31:45;;;;;;;2.72;1.67;;;;;;;23.51;59.79;101262.50;5045803;28;20066;-72
2023/08/04 04:34:10;;;;;;;4.05;1.35;;;;;;;23.49;59.80;101264.41;5047474;28;20025;-71
2023/08/04 04:36:36;;;;;;;2.20;1.38;;;;;;;23.86;58.39;101258.69;5045838;28;20028;-72
2023/08/04 04:39:01;;;;;;;4.65;1.70;;;;;;;24.01;57.90;101264.97;5028813;28;20605;-71
2023/08/04 04:41:27;;;;;;;6.13;2.05;;;;;;;23.83;58.41;101267.75;5040850;28;20433;-71
2023/08/04 04:43:53;;;;;;;2.90;1.25;;;;;;;24.18;57.60;101267.50;5045372;28;20053;-72
2023/08/04 04:46:19;;;;;;;2.53;1.60;;;;;;;23.93;58.50;101272.56;5053014;28;20454;-72
2023/08/04 04:48:44;;;;;;;2.35;1.33;;;;;;;23.91;58.81;101279.84;5048688;28;20420;-72
2023/08/04 04:51:09;;;;;;;2.17;1.52;;;;;;;23.73;59.63;101282.59;5045864;28;20077;-72
2023/08/04 04:53:35;;;;;;;1.95;1.33;;;;;;;24.17;57.96;101281.78;5037798;28;20532;-72
2023/08/04 04:56:01;;;;;;;1.52;1.17;;;;;;;24.60;56.25;101272.09;5031907;28;20414;-71
2023/08/04 04:58:26;;;;;;;2.88;1.40;;;;;;;24.28;57.31;101282.97;5018516;28;20040;-72
2023/08/04 05:00:52;;;;;;;3.70;2.05;;;;;;;24.75;55.83;101281.84;5033006;28;20038;-72
2023/08/04 05:03:17;;;;;;;5.65;2.10;;;;;;;24.65;55.91;101280.72;5047928;28;20053;-72
2023/08/04 05:05:44;;;;;;;3.25;1.60;;;;;;;24.37;55.97;101293.06;5045349;28;20123;-72
2023/08/04 05:08:10;;;;;;;4.85;1.42;;;;;;;24.39;56.47;101291.19;5029678;28;20037;-72
2023/08/04 05:10:35;;;;;;;3.47;1.48;;;;;;;24.81;56.30;101292.19;5033442;28;20116;-72
2023/08/04 05:13:01;;;;;;;2.88;1.30;;;;;;;24.96;55.15;101289.47;5030528;28;20405;-71
2023/08/04 05:15:26;;;;;;;2.90;1.38;;;;;;;24.96;54.37;101289.47;5036917;28;20047;-72
2023/08/04 05:17:52;;;;;;;3.53;1.17;;;;;;;24.91;55.93;101297.78;5040120;28;20028;-71
2023/08/04 05:20:17;;;;;;;6.63;1.40;;;;;;;24.99;55.44;101299.97;5040831;28;20060;-72
2023/08/04 05:22:43;;;;;;;6.60;1.75;;;;;;;24.72;55.86;101303.44;5049506;28;20036;-71
2023/08/04 05:25:09;;;;;;;3.28;1.63;;;;;;;24.26;57.49;101307.06;5031813;28;20064;-72
2023/08/04 05:27:35;;;;;;;4.13;1.77;;;;;;;24.94;55.49;101312.78;5032643;28;20036;-72
2023/08/04 05:30:01;;;;;;;4.32;1.75;;;;;;;24.90;55.78;101312.97;5046236;28;20021;-71
2023/08/04 05:32:29;;;;;;;3.28;1.70;;;;;;;24.77;55.51;101306.69;5049422;28;20039;-72
2023/08/04 05:34:54;;;;;;;4.45;2.00;;;;;;;24.90;55.59;101322.81;5045435;28;20312;-72
2023/08/04 05:37:20;;;;;;;3.35;1.27;;;;;;;24.97;55.94;101312.59;5029826;28;20029;-70
2023/08/04 05:39:45;;;;;;;1.67;1.27;;;;;;;23.80;59.12;101326.66;5033514;28;20116;-71
2023/08/04 05:42:11;;;;;;;4.68;1.52;;;;;;;23.88;59.69;101326.25;5032397;28;20067;-72
2023/08/04 05:44:36;;;;;;;3.05;1.80;;;;;;;23.16;61.43;101332.03;5046331;28;20083;-72
2023/08/04 05:47:01;;;;;;;4.38;1.73;;;;;;;22.97;62.11;101326.81;5037611;28;20083;-72
2023/08/04 05:49:27;;;;;;;2.20;1.10;;;;;;;22.81;64.17;101332.09;5029558;28;20025;-72
2023/08/04 05:51:52;;;;;;;1.65;1.20;;;;;;;23.18;60.80;101334.63;5030461;28;20044;-72
2023/08/04 05:54:18;;;;;;;3.60;1.00;;;;;;;22.96;61.55;101334.91;5033669;28;20029;-72
2023/08/04 05:56:43;;;;;;;2.83;2.35;;;;;;;23.10;62.49;101336.81;5035681;28;20107;-72
2023/08/04 05:59:09;;;;;;;1.67;1.40;;;;;;;24.39;56.86;101339.25;5030889;28;20045;-71
2023/08/04 06:01:35;;;;;;;2.92;1.40;;;;;;;24.06;57.10;101345.66;5029318;28;20129;-71
2023/08/04 06:04:00;;;;;;;1.35;1.15;;;;;;;23.60;59.66;101341.13;5035393;28;20025;-72
2023/08/04 06:06:27;;;;;;;1.80;1.15;;;;;;;24.02;58.51;101341.44;5024474;28;20041;-72
2023/08/04 06:08:52;;;;;;;2.45;1.45;;;;;;;23.90;59.41;101343.00;5030568;28;20585;-72
2023/08/04 06:11:18;;;;;;;1.77;1.10;;;;;;;24.83;57.04;101338.38;5031709;28;20108;-72
2023/08/04 06:13:43;;;;;;;1.63;1.05;;;;;;;24.66;57.77;101346.56;5029284;28;20496;-72
2023/08/04 06:16:08;;;;;;;3.15;1.40;;;;;;;24.62;58.15;101345.03;5027625;28;20033;-72
2023/08/04 06:18:37;;;;;;;2.17;1.25;;;;;;;24.61;58.07;101357.53;5042902;28;20122;-72
2023/08/04 06:21:02;;;;;;;2.65;1.13;;;;;;;24.88;56.96;101357.66;5028274;28;20076;-72
2023/08/04 06:23:28;;;;;;;2.05;1.20;;;;;;;24.71;57.05;101352.50;5023425;28;20021;-72
2023/08/04 06:25:53;;;;;;;5.40;1.25;;;;;;;24.86;56.65;101354.19;5026714;28;20037;-72
2023/08/04 06:28:19;;;;;;;2.10;1.10;;;;;;;25.53;54.89;101360.75;5028868;28;20036;-72
2023/08/04 06:30:44;;;;;;;1.58;1.00;;;;;;;25.26;55.93;101361.53;5028725;28;20054;-72
2023/08/04 06:33:10;;;;;;;1.15;1.05;;;;;;;24.48;56.96;101359.19;5039315;28;20033;-72
2023/08/04 06:35:40;;;;;;;1.67;1.20;;;;;;;24.96;56.33;101369.69;5031876;28;20057;-72
2023/08/04 06:38:06;;;;;;;4.53;1.35;;;;;;;24.51;58.07;101373.25;5039292;28;20536;-72
2023/08/04 06:40:32;;;;;;;5.60;1.25;;;;;;;25.53;56.39;101374.13;5035862;28;20029;-72
2023/08/04 06:42:57;;;;;;;1.38;1.20;;;;;;;24.84;57.64;101382.84;5020250;28;20044;-72
2023/08/04 06:45:23;;;;;;;3.25;1.10;;;;;;;25.12;57.39;101381.13;5028875;28;20044;-73
2023/08/04 06:47:48;;;;;;;3.33;1.10;;;;;;;25.45;56.46;101388.00;5031138;28;20021;-73
2023/08/04 06:50:14;;;;;;;4.35;1.17;;;;;;;25.45;56.56;101387.16;5030038;28;20029;-72
2023/08/04 06:52:39;;;;;;;3.90;1.40;;;;;;;25.69;54.59;101384.69;5027240;28;20103;-73
2023/08/04 06:55:05;;;;;;;1.08;0.90;;;;;;;25.91;53.78;101390.38;5027331;28;20114;-72
2023/08/04 06:57:30;;;;;;;1.35;0.90;;;;;;;25.68;54.87;101383.00;5017028;28;20041;-74
2023/08/04 06:59:56;;;;;;;3.70;1.10;;;;;;;25.43;54.83;101389.94;5012214;28;20036;-72
2023/08/04 07:02:23;;;;;;;2.78;1.13;;;;;;;25.73;53.18;101391.56;5026066;28;20025;-72
2023/08/04 07:04:48;;;;;;;3.70;1.10;;;;;;;26.50;52.57;101386.47;5037992;28;20048;-72
2023/08/04 07:07:15;;;;;;;1.98;1.20;;;;;;;26.03;52.72;101398.56;5038728;28;20036;-72
2023/08/04 07:09:40;;;;;;;7.25;1.20;;;;;;;26.39;52.39;101397.91;5032303;28;20048;-72
2023/08/04 07:12:06;;;;;;;6.25;1.55;;;;;;;26.17;53.58;101401.19;5033595;28;20472;-72
2023/08/04 07:14:32;;;;;;;1.85;0.75;;;;;;;25.14;55.29;101403.31;5033769;28;20543;-72
2023/08/04 07:16:57;;;;;;;0.85;0.80;;;;;;;25.61;54.20;101397.72;5030342;28;20071;-72
2023/08/04 07:19:22;;;;;;;3.80;1.20;;;;;;;25.48;54.02;101403.00;5045578;28;20064;-73
2023/08/04 07:21:48;;;;;;;2.97;0.80;;;;;;;25.75;54.55;101405.72;5047782;28;20528;-72
2023/08/04 07:24:13;;;;;;;2.47;1.23;;;;;;;25.74;54.51;101406.66;5038897;28;20040;-72
2023/08/04 07:26:39;;;;;;;2.47;0.95;;;;;;;25.13;54.21;101422.97;5023326;28;20041;-72
2023/08/04 07:29:04;;;;;;;4.80;0.80;;;;;;;25.42;54.13;101412.28;5025226;28;20032;-72
2023/08/04 07:31:31;;;;;;;4.47;0.75;;;;;;;25.93;52.63;101418.88;5020430;28;20026;-73
2023/08/04 07:33:57;;;;;;;3.72;1.30;;;;;;;25.24;54.60;101411.59;5013150;28;20028;-73
2023/08/04 07:36:22;;;;;;;3.20;0.90;;;;;;;24.79;55.16;101421.53;5028285;28;20025;-72
2023/08/04 07:38:48;;;;;;;43.78;5.00;;;;;;;24.42;55.15;101429.88;5048700;28;20151;-72
2023/08/04 07:41:18;;;;;;;5.47;1.10;;;;;;;25.55;52.48;101420.38;5047127;28;20477;-72
2023/08/04 07:43:44;;;;;;;3.63;0.77;;;;;;;24.84;54.04;101419.41;5020006;28;20037;-71
2023/08/04 07:46:23;;;;;;;7.53;0.90;;;;;;;24.63;53.72;101432.28;5026547;28;20457;-72
2023/08/04 07:48:50;;;;;;;3.03;0.95;;;;;;;25.39;52.24;101425.88;5020387;28;20427;-73
2023/08/04 07:51:15;;;;;;;3.67;1.20;;;;;;;24.45;54.16;101436.88;5024346;28;20430;-73
2023/08/04 07:53:41;;;;;;;2.22;0.82;;;;;;;26.15;50.78;101429.88;5035408;28;20029;-72
2023/08/04 07:56:06;;;;;;;3.63;0.85;;;;;;;26.21;50.65;101433.97;5048309;28;20095;-72
2023/08/04 07:58:32;;;;;;;2.75;0.90;;;;;;;26.18;48.04;101437.72;5047690;28;20025;-72
2023/08/04 08:00:57;;;;;;;3.53;1.17;;;;;;;26.46;47.79;101437.69;5026803;28;20037;-73
2023/08/04 08:03:23;;;;;;;1.80;0.93;;;;;;;27.14;46.13;101428.53;5033441;28;20065;-73
2023/08/04 08:05:48;;;;;;;2.90;1.17;;;;;;;27.06;46.25;101430.91;5028279;28;20539;-72
2023/08/04 08:08:18;;;;;;;3.25;0.60;;;;;;;29.30;42.20;101430.34;5029104;28;20104;-72
2023/08/04 08:10:44;;;;;;;2.42;0.85;;;;;;;30.35;39.98;101431.69;5033703;28;20041;-72
2023/08/04 08:13:10;;;;;;;2.78;1.23;;;;;;;29.43;40.66;101438.31;5031504;28;20029;-73
2023/08/04 08:15:38;;;;;;;2.25;0.70;;;;;;;26.92;43.13;101435.41;5029742;28;20087;-73
2023/08/04 08:18:04;;;;;;;4.10;0.80;;;;;;;25.93;46.02;101451.00;5031544;28;20087;-72
2023/08/04 08:20:29;;;;;;;1.77;0.77;;;;;;;25.54;47.96;101446.28;5044719;28;20029;-72
2023/08/04 08:22:56;;;;;;;4.13;0.70;;;;;;;24.92;48.87;101459.06;5047274;28;20032;-73
2023/08/04 08:25:23;;;;;;;1.42;0.73;;;;;;;25.22;48.80;101451.81;5031975;28;20551;-74
2023/08/04 08:27:48;;;;;;;2.47;0.70;;;;;;;25.04;49.07;101463.66;5016928;28;20022;-72
2023/08/04 08:30:14;;;;;;;4.50;0.80;;;;;;;24.94;49.94;101467.84;5030628;28;20090;-72
2023/08/04 08:32:39;;;;;;;2.58;0.93;;;;;;;24.98;50.01;101462.22;5032004;28;20037;-70
2023/08/04 08:35:05;;;;;;;2.22;0.80;;;;;;;26.06;47.57;101462.63;5042268;28;20068;-73
2023/08/04 08:37:31;;;;;;;2.88;0.98;;;;;;;25.40;48.03;101467.69;5033978;28;20404;-72
2023/08/04 08:39:56;;;;;;;2.38;0.57;;;;;;;26.69;44.67;101465.59;5029677;28;20025;-71
2023/08/04 08:42:21;;;;;;;2.75;0.70;;;;;;;29.76;41.61;101466.19;5033587;28;20036;-73
2023/08/04 08:44:47;;;;;;;5.22;0.73;;;;;;;29.31;41.51;101466.22;5033434;28;20389;-73
2023/08/04 08:47:13;;;;;;;3.03;0.65;;;;;;;29.51;39.82;101468.16;5042229;28;20033;-72
2023/08/04 08:49:48;;;;;;;1.58;0.50;;;;;;;28.13;41.69;101480.53;5047150;28;20026;-72
2023/08/04 08:52:13;;;;;;;3.20;0.70;;;;;;;28.10;42.12;101480.75;5034051;28;20424;-71
2023/08/04 08:54:39;;;;;;;1.98;0.60;;;;;;;26.71;44.47;101487.84;5038750;28;20082;-71
2023/08/04 08:57:05;;;;;;;1.65;0.43;;;;;;;27.07;44.51;101489.78;5030872;28;20049;-71
2023/08/04 08:59:32;;;;;;;1.80;0.85;;;;;;;26.81;44.06;101491.59;5020437;28;20033;-72
2023/08/04 09:02:00;;;;;;;1.60;0.65;;;;;;;25.97;45.36;101490.84;5029929;28;20029;-72
2023/08/04 09:04:26;;;;;;;1.85;0.43;;;;;;;27.26;43.13;101497.41;5038329;28;20123;-73
2023/08/04 09:06:55;;;;;;;4.32;1.50;;;;;;;28.01;39.67;101492.16;5019400;28;20033;-72
2023/08/04 09:09:21;;;;;;;1.73;0.43;;;;;;;28.64;37.87;101489.31;5026270;28;20756;-72
2023/08/04 09:11:47;;;;;;;3.95;0.93;;;;;;;29.39;38.86;101490.69;5032164;28;20017;-72
2023/08/04 09:14:13;;;;;;;0.65;0.40;;;;;;;28.81;39.12;101501.47;5037538;28;20036;-71
2023/08/04 09:16:39;;;;;;;1.30;0.47;;;;;;;28.73;39.56;101494.84;5041148;28;20450;-73
2023/08/04 09:19:06;;;;;;;2.05;0.55;;;;;;;28.67;39.56;101499.84;5045573;28;20030;-72
2023/08/04 09:21:32;;;;;;;0.40;0.40;;;;;;;28.37;39.53;101493.09;5029650;28;20099;-72
2023/08/04 09:23:58;;;;;;;1.70;0.90;;;;;;;28.43;39.97;101493.47;5031888;28;20443;-72
2023/08/04 09:26:23;;;;;;;1.00;0.60;;;;;;;28.17;39.44;101492.75;5030023;28;20112;-73
2023/08/04 09:29:05;;;;;;;0.80;0.40;;;;;;;27.93;39.97;101500.75;5031593;28;20386;-72
2023/08/04 09:31:38;;;;;;;0.95;0.55;;;;;;;27.57;39.92;101503.34;5029563;28;20034;-72
2023/08/04 09:34:05;;;;;;;3.50;0.38;;;;;;;27.48;40.12;101495.06;5032393;28;20029;-72
2023/08/04 09:36:31;;;;;;;1.60;0.65;;;;;;;27.73;39.46;101491.47;5029222;28;20108;-72
2023/08/04 09:39:04;;;;;;;0.30;0.30;;;;;;;29.48;38.50;101506.09;5028906;28;20052;-72
2023/08/04 09:41:33;;;;;;;4.45;0.57;;;;;;;27.88;40.68;101498.41;5029733;28;20112;-73
2023/08/04 09:44:04;;;;;;;0.73;0.20;;;;;;;28.82;38.30;101497.81;5035815;28;20430;-72
2023/08/04 09:46:30;;;;;;;1.33;0.38;;;;;;;28.71;38.68;101499.47;5049814;28;20024;-72
2023/08/04 09:48:59;;;;;;;3.22;0.40;;;;;;;28.21;40.34;101493.41;5044819;28;20036;-74
2023/08/04 09:51:24;;;;;;;0.60;0.40;;;;;;;27.88;40.09;101497.56;5031202;28;20119;-73
2023/08/04 09:53:51;;;;;;;1.83;0.50;;;;;;;27.82;42.57;101498.00;5026932;28;20037;-72
2023/08/04 09:56:18;;;;;;;1.67;0.60;;;;;;;27.64;42.60;101505.56;5025066;28;20496;-72
2023/08/04 09:58:46;;;;;;;1.17;0.60;;;;;;;28.03;43.29;101509.06;5027671;28;20030;-71
2023/08/04 10:01:12;;;;;;;6.63;0.82;;;;;;;28.37;43.12;101509.22;5015785;28;20039;-72
2023/08/04 10:03:43;;;;;;;3.63;0.55;;;;;;;28.18;42.18;101513.28;5029061;28;20458;-72
2023/08/04 10:06:11;;;;;;;3.20;0.88;;;;;;;27.05;44.65;101520.38;5042776;28;20100;-72
2023/08/04 10:08:40;;;;;;;2.10;0.45;;;;;;;28.44;42.53;101507.81;5031668;28;20030;-71
2023/08/04 10:11:07;;;;;;;2.33;0.52;;;;;;;27.53;42.93;101507.22;5044168;28;20559;-72
2023/08/04 10:13:37;;;;;;;3.65;1.17;;;;;;;27.90;42.01;101515.28;5029553;28;20039;-71
2023/08/04 10:16:07;;;;;;;1.80;0.47;;;;;;;28.14;41.48;101517.16;5028794;28;20029;-71
2023/08/04 10:18:48;;;;;;;0.77;0.40;;;;;;;29.15;39.88;101518.53;5026514;28;20032;-71
2023/08/04 10:21:13;;;;;;;0.77;0.32;;;;;;;28.05;41.75;101520.53;5012605;28;20037;-72
2023/08/04 10:23:40;;;;;;;0.60;0.25;;;;;;;28.79;39.83;101531.16;5032334;28;20033;-71
2023/08/04 10:26:05;;;;;;;2.85;0.55;;;;;;;28.51;39.59;101527.84;5035293;28;20032;-71
2023/08/04 10:28:31;;;;;;;0.20;0.20;;;;;;;29.30;38.32;101518.34;5032774;28;20037;-72
2023/08/04 10:31:12;;;;;;;1.02;0.30;;;;;;;29.36;37.56;101534.00;5028995;28;20053;-73
2023/08/04 10:33:37;;;;;;;1.05;0.40;;;;;;;28.08;38.03;101525.66;5049105;28;20024;-72
2023/08/04 10:36:10;;;;;;;3.10;1.13;;;;;;;29.87;35.84;101525.44;5030248;28;20051;-71
2023/08/04 10:38:57;;;;;;;1.30;0.68;;;;;;;28.80;37.17;101527.50;5051251;28;20028;-72
2023/08/04 10:41:22;;;;;;;2.00;0.70;;;;;;;29.54;37.47;101520.91;5025890;28;20030;-72
2023/08/04 10:44:00;;;;;;;0.82;0.40;;;;;;;27.47;39.26;101531.78;5028279;28;20047;-73
2023/08/04 10:46:25;;;;;;;1.85;0.68;;;;;;;26.83;40.64;101537.97;5029359;28;20029;-71
2023/08/04 10:48:51;;;;;;;1.77;0.40;;;;;;;27.95;38.45;101530.22;5029734;28;20040;-71
2023/08/04 10:51:16;;;;;;;4.35;0.35;;;;;;;28.02;39.32;101528.81;5030559;28;20377;-70
2023/08/04 10:53:42;;;;;;;1.73;0.25;;;;;;;28.39;38.11;101539.53;5028617;28;20029;-70
2023/08/04 10:56:08;;;;;;;0.40;0.40;;;;;;;27.61;40.21;101532.63;5031792;28;20053;-71
2023/08/04 10:58:33;;;;;;;1.58;0.30;;;;;;;29.05;38.17;101536.38;5032940;28;20035;-71
2023/08/04 11:00:59;;;;;;;0.73;0.30;;;;;;;27.56;40.95;101532.94;5026181;28;20040;-70
2023/08/04 11:03:29;;;;;;;0.13;0.13;;;;;;;26.51;42.29;101543.59;5023644;28;20060;-71
2023/08/04 11:05:55;;;;;;;0.75;0.32;;;;;;;26.57;41.30;101548.56;5029163;28;20561;-71
2023/08/04 11:08:23;;;;;;;2.08;0.22;;;;;;;27.14;40.63;101543.03;5042545;28;20036;-72
2023/08/04 11:10:52;;;;;;;0.43;0.25;;;;;;;27.06;41.17;101548.91;5014098;28;20033;-71
2023/08/04 11:13:20;;;;;;;0.80;0.80;;;;;;;27.72;40.00;101548.84;5022799;28;20033;-72
2023/08/04 11:15:47;;;;;;;2.38;0.63;;;;;;;27.55;41.56;101545.53;5018625;28;20093;-72
2023/08/04 11:18:14;;;;;;;2.03;0.88;;;;;;;29.34;39.31;101541.34;5039521;28;20041;-71
2023/08/04 11:20:41;;;;;;;0.35;0.30;;;;;;;27.53;40.00;101542.09;5026782;28;20025;-72